Terminal Aerodrome Forecast
Issued by NWS

Home | Current Version | Previous Version | Text Only | Print | Product List | Glossary On
Versions: 1 2 3 4 5 6 7 8 9 10 11 12 13 14 15 16 17 18
000
FTUS43 KPAH 272142 AAA
TAFCGI
TAF AMD
KCGI 272142Z 2722/2818 20011G21KT P6SM BKN100
      TEMPO 2723/2802 4SM TSRA BR BKN025CB
     FM280200 23005KT P6SM SCT250
     FM281400 25010KT P6SM SCT250=

USA.gov is the U.S. government's official web portal to all federal, state and local government web resources and services.